Terminal Aerodrome Forecast
Issued by NWS El Paso, TX

Current Version | Previous Version | Text Only | Print | Product List | Glossary On
Versions: 1 2 3 4 5 6 7 8 9 10 11 12 13 14 15 16
747
FTUS44 KEPZ 280533
TAFELP
TAF
KELP 280533Z 2806/2906 10009KT P6SM FEW120 SCT250
     FM281200 04010KT P6SM FEW090 BKN250
     FM281700 08012G22KT P6SM VCTS SCT070CB BKN250
     FM290300 09011KT P6SM VCSH FEW120 BKN250=

USA.gov is the U.S. government's official web portal to all federal, state and local government web resources and services.